createdAt,value
2019-05-16T00:01:43.610Z,63.20
2019-05-16T00:04:13.685Z,63.20
2019-05-16T00:06:43.902Z,63.10
2019-05-16T00:09:13.758Z,63.30
2019-05-16T00:11:43.568Z,63.00
2019-05-16T00:14:13.748Z,63.40
2019-05-16T00:16:43.884Z,63.60
2019-05-16T00:19:13.699Z,63.60
2019-05-16T00:21:43.803Z,64.00
2019-05-16T00:24:13.923Z,64.40
2019-05-16T00:26:44.144Z,64.70
2019-05-16T00:29:13.928Z,64.90
2019-05-16T00:31:43.746Z,65.20
2019-05-16T00:34:14.930Z,65.60
2019-05-16T00:36:48.805Z,65.50
2019-05-16T00:39:18.917Z,65.90
2019-05-16T00:41:48.985Z,65.70
2019-05-16T00:44:19.058Z,65.80
2019-05-16T00:46:48.990Z,65.80
2019-05-16T00:49:18.876Z,66.00
2019-05-16T00:51:48.769Z,66.10
2019-05-16T00:54:18.727Z,66.30
2019-05-16T00:56:50.138Z,66.40
2019-05-16T00:59:20.443Z,66.80
2019-05-16T01:01:51.399Z,67.30
2019-05-16T01:04:21.504Z,67.60
2019-05-16T01:06:51.930Z,67.70
2019-05-16T01:09:22.466Z,67.90
2019-05-16T01:11:52.581Z,67.80
2019-05-16T01:14:22.399Z,68.10
2019-05-16T01:16:52.519Z,68.10
2019-05-16T01:19:22.332Z,68.10
2019-05-16T01:21:52.127Z,68.00
2019-05-16T01:24:22.024Z,68.50
2019-05-16T01:26:52.071Z,68.60
2019-05-16T01:29:22.191Z,68.70
2019-05-16T01:31:51.992Z,68.60
2019-05-16T01:34:21.798Z,68.50
2019-05-16T01:36:51.940Z,68.80
2019-05-16T01:39:22.058Z,68.70
2019-05-16T01:41:51.878Z,68.90
2019-05-16T01:44:21.987Z,69.10
2019-05-16T01:46:51.855Z,69.30
2019-05-16T01:49:21.667Z,69.40
2019-05-16T01:51:51.732Z,69.60
2019-05-16T01:54:21.767Z,69.80
2019-05-16T01:56:51.876Z,69.60
2019-05-16T01:59:21.670Z,70.00
2019-05-16T02:01:51.547Z,69.70
2019-05-16T02:04:21.617Z,69.90
2019-05-16T02:06:54.759Z,69.80
2019-05-16T02:09:22.935Z,69.70
2019-05-16T02:11:52.745Z,69.70
2019-05-16T02:14:22.551Z,69.90
2019-05-16T02:16:52.626Z,69.80
2019-05-16T02:19:22.507Z,70.10
2019-05-16T02:21:52.320Z,70.10
2019-05-16T02:24:22.481Z,70.20
2019-05-16T02:26:52.594Z,70.10
2019-05-16T02:29:22.466Z,70.10
2019-05-16T02:31:52.539Z,70.30
2019-05-16T02:34:22.344Z,70.30
2019-05-16T02:37:10.557Z,70.30
2019-05-16T02:39:24.317Z,70.00
2019-05-16T02:41:54.203Z,69.90
2019-05-16T02:44:24.961Z,69.50
2019-05-16T02:46:55.019Z,69.30
2019-05-16T02:49:25.107Z,69.20
2019-05-16T02:51:54.937Z,68.50
2019-05-16T02:54:25.154Z,68.70
2019-05-16T02:56:55.267Z,68.30
2019-05-16T02:59:25.379Z,67.90
2019-05-16T03:01:55.244Z,67.50
2019-05-16T03:04:25.525Z,67.30
2019-05-16T03:06:56.465Z,67.00
2019-05-16T03:09:30.319Z,66.50
2019-05-16T03:12:01.415Z,66.10
2019-05-16T03:14:31.975Z,65.50
2019-05-16T03:17:04.098Z,65.20
2019-05-16T03:19:35.700Z,64.80
2019-05-16T03:22:06.781Z,64.60
2019-05-16T03:24:36.612Z,64.40
2019-05-16T03:27:06.496Z,64.10
2019-05-16T03:29:36.567Z,64.40
2019-05-16T03:32:06.644Z,64.20
2019-05-16T03:34:36.456Z,63.80
2019-05-16T03:37:06.351Z,63.80
2019-05-16T03:39:36.167Z,64.50
2019-05-16T03:42:05.983Z,63.50
2019-05-16T03:44:35.794Z,63.30
2019-05-16T03:47:05.679Z,62.90
2019-05-16T03:49:35.480Z,62.60
2019-05-16T03:52:05.287Z,62.20
2019-05-16T03:54:35.153Z,61.90
2019-05-16T03:57:04.987Z,61.70
2019-05-16T03:59:35.024Z,61.60
2019-05-16T04:02:04.915Z,61.50
2019-05-16T04:04:34.711Z,61.40
2019-05-16T04:07:04.603Z,61.10
2019-05-16T04:09:34.457Z,61.10
2019-05-16T04:12:04.603Z,61.10
2019-05-16T04:14:34.727Z,61.00
2019-05-16T04:17:05.048Z,60.70
2019-05-16T04:19:35.277Z,60.40
2019-05-16T04:22:10.432Z,60.20
2019-05-16T04:24:43.597Z,60.10
2019-05-16T04:27:13.452Z,60.10
2019-05-16T04:29:43.247Z,59.60
2019-05-16T04:32:13.057Z,59.60
2019-05-16T04:34:42.928Z,59.30
2019-05-16T04:37:13.862Z,59.20
2019-05-16T04:39:43.649Z,58.90
2019-05-16T04:42:13.526Z,58.40
2019-05-16T04:44:43.529Z,58.00
2019-05-16T04:47:13.373Z,57.50
2019-05-16T04:49:43.200Z,57.80
2019-05-16T04:52:13.080Z,57.60
2019-05-16T04:54:43.198Z,57.90
2019-05-16T04:57:13.131Z,57.90
2019-05-16T04:59:43.899Z,57.90
2019-05-16T05:02:14.067Z,58.00
2019-05-16T05:04:43.875Z,58.10
2019-05-16T05:07:13.965Z,58.00
2019-05-16T05:09:44.140Z,57.80
2019-05-16T05:12:14.033Z,57.60
2019-05-16T05:14:44.361Z,57.30
2019-05-16T05:17:14.329Z,57.10
2019-05-16T05:19:44.176Z,56.90
2019-05-16T05:22:14.325Z,56.20
2019-05-16T05:24:44.538Z,56.20
2019-05-16T05:27:14.751Z,55.60
2019-05-16T05:29:44.558Z,55.30
2019-05-16T05:32:14.683Z,54.80
2019-05-16T05:34:44.920Z,54.30
2019-05-16T05:37:14.730Z,50.90
2019-05-16T05:39:44.533Z,45.70
2019-05-16T05:42:14.341Z,39.60
2019-05-16T05:44:44.460Z,35.20
2019-05-16T05:47:14.586Z,33.20
2019-05-16T05:49:44.710Z,31.20
2019-05-16T05:52:14.837Z,29.40
2019-05-16T05:54:44.701Z,28.70
2019-05-16T05:57:14.508Z,28.20
2019-05-16T05:59:44.573Z,27.40
2019-05-16T06:02:14.456Z,26.60
2019-05-16T06:04:44.259Z,26.10
2019-05-16T06:07:14.067Z,25.80
2019-05-16T06:09:53.601Z,25.50
2019-05-16T06:12:15.383Z,27.60
2019-05-16T06:14:45.501Z,29.20
2019-05-16T06:17:15.302Z,28.10
2019-05-16T06:19:45.532Z,26.60
2019-05-16T06:22:15.687Z,25.10
2019-05-16T06:24:45.916Z,24.70
2019-05-16T06:27:15.862Z,24.20
2019-05-16T06:29:46.315Z,23.30
2019-05-16T06:32:16.226Z,23.30
2019-05-16T06:34:47.238Z,24.30
2019-05-16T06:37:17.341Z,25.10
2019-05-16T06:39:47.213Z,24.70
2019-05-16T06:42:17.274Z,24.70
2019-05-16T06:44:47.078Z,23.50
2019-05-16T06:47:20.662Z,24.40
2019-05-16T06:49:50.852Z,26.40
2019-05-16T06:52:20.199Z,28.50
2019-05-16T06:54:51.074Z,30.20
2019-05-16T06:57:21.619Z,32.80
2019-05-16T06:59:51.795Z,33.40
2019-05-16T07:02:30.486Z,34.00
2019-05-16T07:04:53.104Z,34.40
2019-05-16T07:07:23.183Z,35.00
2019-05-16T07:10:00.016Z,35.30
2019-05-16T07:12:25.165Z,36.00
2019-05-16T07:14:55.010Z,36.70
2019-05-16T07:17:25.100Z,34.60
2019-05-16T07:19:54.921Z,30.00
2019-05-16T07:22:24.717Z,27.70
2019-05-16T07:24:54.555Z,26.80
2019-05-16T07:27:24.339Z,26.10
2019-05-16T07:29:54.233Z,27.30
2019-05-16T07:32:24.381Z,28.90
2019-05-16T07:34:54.207Z,30.60
2019-05-16T07:37:24.526Z,32.00
2019-05-16T07:39:54.637Z,32.60
2019-05-16T07:42:24.443Z,33.10
2019-05-16T07:44:54.578Z,34.10
2019-05-16T07:47:25.450Z,35.50
2019-05-16T07:49:55.247Z,37.10
2019-05-16T07:52:25.048Z,38.20
2019-05-16T07:54:55.153Z,39.40
2019-05-16T07:57:26.032Z,40.20
2019-05-16T07:59:56.108Z,40.30
2019-05-16T08:02:26.177Z,40.60
2019-05-16T08:04:56.119Z,41.30
2019-05-16T08:07:26.267Z,41.60
2019-05-16T08:09:56.384Z,41.50
2019-05-16T08:12:27.029Z,42.20
2019-05-16T08:14:57.705Z,42.10
2019-05-16T08:17:31.398Z,41.70
2019-05-16T08:20:00.554Z,41.70
2019-05-16T08:22:30.883Z,42.30
2019-05-16T08:25:00.924Z,42.40
2019-05-16T08:27:31.487Z,42.20
2019-05-16T08:30:02.670Z,41.50
2019-05-16T08:32:32.752Z,42.10
2019-05-16T08:35:02.584Z,41.20
2019-05-16T08:40:06.425Z,40.30
2019-05-16T08:42:36.512Z,40.00
2019-05-16T08:45:06.976Z,40.40
2019-05-16T08:47:41.887Z,40.70
2019-05-16T08:50:14.092Z,41.00
2019-05-16T08:52:43.405Z,41.60
2019-05-16T08:55:15.325Z,41.20
2019-05-16T08:57:45.131Z,42.40
2019-05-16T09:00:17.322Z,43.50
2019-05-16T09:02:47.129Z,43.80
2019-05-16T09:05:17.510Z,43.80
2019-05-16T09:07:47.309Z,44.50
2019-05-16T09:12:48.682Z,44.90
2019-05-16T09:15:19.158Z,45.20
2019-05-16T09:17:48.976Z,45.20
2019-05-16T09:18:38.346Z,40.20
2019-05-16T09:20:19.621Z,45.60
2019-05-16T09:22:49.495Z,46.10
2019-05-16T09:25:19.586Z,46.50
2019-05-16T09:27:49.379Z,46.50
2019-05-16T09:30:19.512Z,46.60
2019-05-16T09:32:49.315Z,47.00
2019-05-16T09:35:19.454Z,47.20
2019-05-16T09:37:49.635Z,47.30
2019-05-16T09:40:19.510Z,47.70
2019-05-16T09:42:49.394Z,46.30
2019-05-16T09:45:19.466Z,45.40
2019-05-16T09:47:49.320Z,45.50
2019-05-16T09:50:19.765Z,44.10
2019-05-16T09:52:49.563Z,44.30
2019-05-16T09:55:19.707Z,43.60
2019-05-16T09:57:50.588Z,43.20
2019-05-16T10:00:23.276Z,42.80
2019-05-16T10:02:53.336Z,42.70
2019-05-16T10:05:26.394Z,41.80
2019-05-16T10:07:57.419Z,40.80
2019-05-16T10:10:27.113Z,40.30
2019-05-16T10:12:56.908Z,39.70
2019-05-16T10:15:27.076Z,40.30
2019-05-16T10:17:57.637Z,40.50
2019-05-16T10:20:27.577Z,40.60
2019-05-16T10:22:58.103Z,39.80
2019-05-16T10:25:28.081Z,38.00
2019-05-16T10:27:58.182Z,37.50
2019-05-16T10:30:28.535Z,37.60
2019-05-16T10:33:00.881Z,37.20
2019-05-16T10:35:30.389Z,37.10
2019-05-16T10:38:00.313Z,37.00
2019-05-16T10:40:31.199Z,35.90
2019-05-16T10:43:01.142Z,34.90
2019-05-16T10:45:31.325Z,34.90
2019-05-16T10:48:02.196Z,34.20
2019-05-16T10:50:32.100Z,33.90
2019-05-16T10:53:25.774Z,33.20
2019-05-16T10:55:36.731Z,32.50
2019-05-16T10:58:07.440Z,30.90
2019-05-16T11:01:04.981Z,30.00
2019-05-16T11:03:09.355Z,30.20
2019-05-16T11:05:39.775Z,30.90
2019-05-16T11:08:10.140Z,31.70
2019-05-16T11:10:40.310Z,31.60
2019-05-16T11:13:10.240Z,31.70
2019-05-16T11:15:40.412Z,32.00
2019-05-16T11:18:10.504Z,32.80
2019-05-16T11:20:44.614Z,33.90
2019-05-16T11:23:12.405Z,34.00
2019-05-16T11:25:42.204Z,35.00
2019-05-16T11:28:12.316Z,35.80
2019-05-16T11:30:42.114Z,35.90
2019-05-16T11:33:12.262Z,37.30
2019-05-16T11:35:42.368Z,36.30
2019-05-16T11:38:12.191Z,37.70
2019-05-16T11:40:42.014Z,38.50
2019-05-16T11:43:18.332Z,39.40
2019-05-16T11:45:43.767Z,39.90
2019-05-16T11:48:13.895Z,40.00
2019-05-16T11:50:43.777Z,40.70
2019-05-16T11:53:13.574Z,41.30
2019-05-16T11:55:51.707Z,40.60
2019-05-16T11:58:17.723Z,40.20
2019-05-16T12:00:48.271Z,40.70
2019-05-16T12:03:18.808Z,41.20
2019-05-16T12:05:48.733Z,40.90
2019-05-16T12:08:18.773Z,40.60
2019-05-16T12:10:48.861Z,39.90
2019-05-16T12:13:27.544Z,39.70
2019-05-16T12:15:50.204Z,38.70
2019-05-16T12:18:20.035Z,39.50
2019-05-16T12:20:49.918Z,38.90
2019-05-16T12:23:22.690Z,38.40
2019-05-16T12:25:51.495Z,38.60
2019-05-16T12:28:21.369Z,38.90
2019-05-16T12:30:51.194Z,38.30
2019-05-16T12:33:21.293Z,37.60
2019-05-16T12:35:51.163Z,37.50
2019-05-16T12:38:21.242Z,38.40
2019-05-16T12:40:51.042Z,39.20
2019-05-16T12:43:20.916Z,39.50
2019-05-16T12:45:50.715Z,39.20
2019-05-16T12:48:21.783Z,39.30
2019-05-16T12:50:51.891Z,39.00
2019-05-16T12:53:23.457Z,39.10
2019-05-16T12:55:53.568Z,39.40
2019-05-16T12:58:25.953Z,39.90
2019-05-16T13:00:57.573Z,40.20
2019-05-16T13:03:27.748Z,39.90
2019-05-16T13:05:57.791Z,39.30
2019-05-16T13:08:27.647Z,39.10
2019-05-16T13:10:57.883Z,39.30
2019-05-16T13:13:28.103Z,38.60
2019-05-16T13:15:58.231Z,38.40
2019-05-16T13:18:28.291Z,39.10
2019-05-16T13:20:58.118Z,39.80
2019-05-16T13:23:27.928Z,40.00
2019-05-16T13:25:57.816Z,39.60
2019-05-16T13:28:27.670Z,39.30
2019-05-16T13:30:57.787Z,39.60
2019-05-16T13:33:27.894Z,40.00
2019-05-16T13:35:57.956Z,40.40
2019-05-16T13:38:28.211Z,39.40
2019-05-16T13:40:58.029Z,39.30
2019-05-16T13:43:28.176Z,39.30
2019-05-16T13:45:58.252Z,39.80
2019-05-16T13:48:29.271Z,40.00
2019-05-16T13:51:10.512Z,40.00
2019-05-16T13:53:30.916Z,40.20
2019-05-16T13:56:00.802Z,40.00
2019-05-16T13:58:30.660Z,40.60
2019-05-16T14:01:00.538Z,39.50
2019-05-16T14:03:31.647Z,39.00
2019-05-16T14:06:01.474Z,38.00
2019-05-16T14:08:31.535Z,37.80
2019-05-16T14:11:02.651Z,38.30
2019-05-16T14:13:32.649Z,38.60
2019-05-16T14:16:02.467Z,39.80
2019-05-16T14:18:32.523Z,40.70
2019-05-16T14:21:02.571Z,41.30
2019-05-16T14:23:33.371Z,41.80
2019-05-16T14:26:03.429Z,41.90
2019-05-16T14:28:33.264Z,42.20
2019-05-16T14:31:03.120Z,42.90
2019-05-16T14:33:34.047Z,43.10
2019-05-16T14:36:03.936Z,44.80
2019-05-16T14:38:34.001Z,44.80
2019-05-16T14:41:03.833Z,44.70
2019-05-16T14:43:36.331Z,45.40
2019-05-16T14:46:09.293Z,45.10
2019-05-16T14:48:37.262Z,45.00
2019-05-16T14:51:07.458Z,44.70
2019-05-16T14:53:38.082Z,44.90
2019-05-16T14:56:08.028Z,45.80
2019-05-16T14:58:38.201Z,45.70
2019-05-16T15:01:08.142Z,45.70
2019-05-16T15:03:38.234Z,45.80
2019-05-16T15:06:08.826Z,45.60
2019-05-16T15:08:38.890Z,45.30
2019-05-16T15:11:08.792Z,46.20
2019-05-16T15:13:38.604Z,46.40
2019-05-16T15:16:08.423Z,46.40
2019-05-16T15:18:38.695Z,46.70
2019-05-16T15:21:09.088Z,46.80
2019-05-16T15:23:40.004Z,47.40
2019-05-16T15:26:09.828Z,47.80
2019-05-16T15:28:39.709Z,47.70
2019-05-16T15:31:09.814Z,47.80
2019-05-16T15:33:39.891Z,47.70
2019-05-16T15:36:09.773Z,48.00
2019-05-16T15:38:39.558Z,48.20
2019-05-16T15:41:09.624Z,48.00
2019-05-16T15:43:39.508Z,47.70
2019-05-16T15:46:09.446Z,47.70
2019-05-16T15:48:39.387Z,47.30
2019-05-16T15:51:09.360Z,47.60
2019-05-16T15:53:40.068Z,46.90
2019-05-16T15:56:10.711Z,46.80
2019-05-16T15:58:42.073Z,47.30
2019-05-16T16:01:12.126Z,47.40
2019-05-16T16:03:41.936Z,47.20
2019-05-16T16:06:11.756Z,47.30
2019-05-16T16:08:41.619Z,46.90
2019-05-16T16:11:11.492Z,45.90
2019-05-16T16:13:41.299Z,46.00
2019-05-16T16:16:11.261Z,45.50
2019-05-16T16:18:41.160Z,45.50
2019-05-16T16:21:11.209Z,45.40
2019-05-16T16:23:41.268Z,45.40
2019-05-16T16:26:11.229Z,45.20
2019-05-16T16:28:41.033Z,45.50
2019-05-16T16:31:10.858Z,46.20
2019-05-16T16:33:40.998Z,46.30
2019-05-16T16:36:11.052Z,46.20
2019-05-16T16:38:40.867Z,46.40
2019-05-16T16:41:10.693Z,46.70
2019-05-16T16:43:40.507Z,46.80
2019-05-16T16:46:13.580Z,47.30
2019-05-16T16:48:41.922Z,47.40
2019-05-16T16:51:11.799Z,47.90
2019-05-16T16:53:41.951Z,48.10
2019-05-16T16:56:11.847Z,48.50
2019-05-16T16:58:41.875Z,48.10
2019-05-16T17:01:11.701Z,48.30
2019-05-16T17:03:41.773Z,49.00
2019-05-16T17:06:11.859Z,48.90
2019-05-16T17:08:41.677Z,48.10
2019-05-16T17:11:11.554Z,48.20
2019-05-16T17:13:41.615Z,48.50
2019-05-16T17:16:21.884Z,48.90
2019-05-16T17:18:43.444Z,49.30
2019-05-16T17:21:13.573Z,49.40
2019-05-16T17:23:43.691Z,49.10
2019-05-16T17:26:13.812Z,49.70
2019-05-16T17:28:46.548Z,50.30
2019-05-16T17:31:16.833Z,50.40
2019-05-16T17:33:47.924Z,50.70
2019-05-16T17:36:17.723Z,50.80
2019-05-16T17:38:47.595Z,50.50
2019-05-16T17:41:17.715Z,50.40
2019-05-16T17:43:48.854Z,50.80
2019-05-16T17:46:18.666Z,50.80
2019-05-16T17:48:48.469Z,51.20
2019-05-16T17:51:18.429Z,51.60
2019-05-16T17:53:48.471Z,51.40
2019-05-16T17:56:18.272Z,51.80
2019-05-16T17:58:48.076Z,52.00
2019-05-16T18:01:18.121Z,52.50
2019-05-16T18:03:48.185Z,52.90
2019-05-16T18:06:18.287Z,53.60
2019-05-16T18:08:48.311Z,53.40
2019-05-16T18:11:18.249Z,53.60
2019-05-16T18:13:49.333Z,53.70
2019-05-16T18:16:19.134Z,53.70
2019-05-16T18:18:48.953Z,53.80
2019-05-16T18:21:18.763Z,53.80
2019-05-16T18:23:48.591Z,54.10
2019-05-16T18:26:18.380Z,53.90
2019-05-16T18:28:48.212Z,63.00
2019-05-16T18:31:18.110Z,55.20
2019-05-16T18:33:48.201Z,45.70
2019-05-16T18:36:18.075Z,36.90
2019-05-16T19:20:57.047Z,39.80
2019-05-16T19:23:27.154Z,37.50
2019-05-16T19:25:57.379Z,36.60
2019-05-16T19:28:28.665Z,38.20
2019-05-16T19:30:59.052Z,93.20
2019-05-16T19:33:29.174Z,35.00
2019-05-16T19:35:58.984Z,44.40
2019-05-16T19:38:29.307Z,37.30
2019-05-16T19:40:59.611Z,39.00
2019-05-16T19:44:52.502Z,43.90
2019-05-16T19:47:34.031Z,53.80
2019-05-16T19:49:54.213Z,61.90
2019-05-16T19:52:26.852Z,68.80
2019-05-16T19:54:56.465Z,75.50
2019-05-16T19:57:26.631Z,81.00
2019-05-16T19:59:57.459Z,85.70
2019-05-16T20:02:27.455Z,88.40
2019-05-16T20:04:57.277Z,90.10
2019-05-16T20:07:27.106Z,90.90
2019-05-16T20:09:56.905Z,92.20
2019-05-16T20:12:27.091Z,92.00
2019-05-16T20:15:07.741Z,92.50
2019-05-16T20:17:30.088Z,92.30
2019-05-16T20:20:00.228Z,92.50
2019-05-16T20:22:30.124Z,92.30
2019-05-16T20:24:59.955Z,92.50
2019-05-16T20:27:30.063Z,92.40
2019-05-16T20:29:59.911Z,92.70
2019-05-16T20:32:31.027Z,92.80
2019-05-16T20:35:01.135Z,92.40
2019-05-16T20:37:31.360Z,92.10
2019-05-16T20:40:01.788Z,92.50
2019-05-16T20:42:32.938Z,92.40
2019-05-16T20:45:02.989Z,92.30
2019-05-16T20:47:33.280Z,92.10
2019-05-16T20:50:04.137Z,92.20
2019-05-16T20:52:33.955Z,92.30
2019-05-16T20:55:07.155Z,92.60
2019-05-16T20:57:37.705Z,92.30
2019-05-16T21:00:09.430Z,92.40
2019-05-16T21:02:39.547Z,92.40
2019-05-16T21:05:09.793Z,92.70
2019-05-16T21:07:39.611Z,92.60
2019-05-16T21:10:10.095Z,92.50
2019-05-16T21:12:40.626Z,92.40
2019-05-16T21:15:11.046Z,92.40
2019-05-16T21:17:40.948Z,92.60
2019-05-16T21:20:11.470Z,92.50
2019-05-16T21:22:41.722Z,92.50
2019-05-16T21:25:11.802Z,92.50
2019-05-16T21:27:41.636Z,92.50
2019-05-16T21:30:12.903Z,92.30
2019-05-16T21:32:44.490Z,92.20
2019-05-16T21:35:14.721Z,92.30
2019-05-16T21:37:46.775Z,92.30
2019-05-16T21:40:17.050Z,92.40
2019-05-16T21:42:47.281Z,92.80
2019-05-16T21:45:17.544Z,92.90
2019-05-16T21:47:47.407Z,93.10
2019-05-16T21:50:19.228Z,93.40
2019-05-16T21:52:49.203Z,93.50
2019-05-16T21:55:19.270Z,93.50
2019-05-16T21:57:49.074Z,93.90
2019-05-16T22:00:21.971Z,93.90
2019-05-16T22:02:53.527Z,94.20
2019-05-16T22:05:24.196Z,94.60
2019-05-16T22:07:56.604Z,94.30
2019-05-16T22:10:26.622Z,94.60
2019-05-16T22:12:58.321Z,94.60
2019-05-16T22:15:28.378Z,94.80
2019-05-16T22:17:58.703Z,95.00
2019-05-16T22:20:29.043Z,95.00
2019-05-16T22:22:59.439Z,95.30
2019-05-16T22:25:29.259Z,95.40
2019-05-16T22:27:59.377Z,95.60
2019-05-16T22:30:29.251Z,95.50
2019-05-16T22:32:59.514Z,95.80
2019-05-16T22:35:29.840Z,95.70
2019-05-16T22:38:00.063Z,95.80
2019-05-16T22:40:29.963Z,95.90
2019-05-16T22:43:00.097Z,95.80
2019-05-16T22:45:29.923Z,95.70
2019-05-16T22:47:59.727Z,95.90
2019-05-16T22:50:29.844Z,95.70
2019-05-16T22:53:00.072Z,96.00
2019-05-16T22:55:30.186Z,96.00
2019-05-16T22:58:00.304Z,96.30
2019-05-16T23:00:31.823Z,96.60
2019-05-16T23:03:01.659Z,96.30
2019-05-16T23:05:31.473Z,96.50
2019-05-16T23:08:05.954Z,96.30
2019-05-16T23:10:32.873Z,96.40
2019-05-16T23:13:02.966Z,96.40
2019-05-16T23:15:33.084Z,96.60
2019-05-16T23:18:03.212Z,96.50
2019-05-16T23:20:33.331Z,96.30
2019-05-16T23:23:03.158Z,96.30
2019-05-16T23:25:33.045Z,96.60
2019-05-16T23:28:03.181Z,96.60
2019-05-16T23:30:33.124Z,96.40
2019-05-16T23:33:02.927Z,96.40
2019-05-16T23:35:32.736Z,96.50
2019-05-16T23:38:15.577Z,96.50
2019-05-16T23:40:34.423Z,96.70
2019-05-16T23:43:04.251Z,96.70
2019-05-16T23:45:34.055Z,96.70
2019-05-16T23:48:04.166Z,96.60
2019-05-16T23:50:33.963Z,96.90
2019-05-16T23:53:04.081Z,96.90
2019-05-16T23:55:36.886Z,97.00
2019-05-16T23:58:07.049Z,96.70
